aviador You're here:

LZSL Decoded Metar

SLIAC in SLOVAKIA
Report Time2018-04-24 02:30:00
UTC Time2018-04-24 02:48:38
Flight Rules vfr VFR
WindVRB at 01 kt
Visibility9999 m
Phenomena:N/A
Clouds:N/A
Expected CloudBase > 800 ft AGL from Temp-Dew spread
CeilingNone
Temp10°C (ISA -3)
Dew Point08°C (88% RH)
AAT9.2°C
QNH1015 hPa
Density Alt755 ft
Elevation1,027 ft
Report Wrong Elevation
Raw Report
LZSL 240230Z VRB01KT CAVOK 10/08 Q1015=

Extra information for LZSL:More info

Metar Taf Metar & Taf Last 4 Metars F.Rules Stats Wind Profile Meteogram Temp Stats Airport Information Weather charts Add Link Nearby VenuesMetar ALERT Operation Metar Decoded Social comments